sensor_id;sensor_type;location;lat;lon;timestamp;P1;durP1;ratioP1;P2;durP2;ratioP2
12910;SDS011;6523;49.758;6.120;2023-04-24T00:00:54;2.27;;;1.40;;
12910;SDS011;6523;49.758;6.120;2023-04-24T00:03:21;1.93;;;1.53;;
12910;SDS011;6523;49.758;6.120;2023-04-24T00:05:50;2.43;;;1.87;;
12910;SDS011;6523;49.758;6.120;2023-04-24T00:08:16;2.70;;;1.90;;
12910;SDS011;6523;49.758;6.120;2023-04-24T00:10:42;2.73;;;2.10;;
12910;SDS011;6523;49.758;6.120;2023-04-24T00:13:07;2.27;;;1.83;;
12910;SDS011;6523;49.758;6.120;2023-04-24T00:15:33;5.67;;;2.27;;
12910;SDS011;6523;49.758;6.120;2023-04-24T00:17:59;2.47;;;2.27;;
12910;SDS011;6523;49.758;6.120;2023-04-24T00:20:26;4.03;;;2.40;;
12910;SDS011;6523;49.758;6.120;2023-04-24T00:22:53;2.80;;;2.33;;
12910;SDS011;6523;49.758;6.120;2023-04-24T00:25:18;2.63;;;2.40;;
12910;SDS011;6523;49.758;6.120;2023-04-24T00:27:44;2.03;;;1.90;;
12910;SDS011;6523;49.758;6.120;2023-04-24T00:30:10;3.17;;;2.87;;
12910;SDS011;6523;49.758;6.120;2023-04-24T00:32:35;3.03;;;2.80;;
12910;SDS011;6523;49.758;6.120;2023-04-24T00:35:01;3.10;;;2.87;;
12910;SDS011;6523;49.758;6.120;2023-04-24T00:37:27;3.73;;;2.90;;
12910;SDS011;6523;49.758;6.120;2023-04-24T00:39:52;3.67;;;2.50;;
12910;SDS011;6523;49.758;6.120;2023-04-24T00:42:18;2.97;;;2.77;;
12910;SDS011;6523;49.758;6.120;2023-04-24T00:44:43;3.50;;;3.17;;
12910;SDS011;6523;49.758;6.120;2023-04-24T00:47:09;3.40;;;3.10;;
12910;SDS011;6523;49.758;6.120;2023-04-24T00:49:36;3.37;;;2.60;;
12910;SDS011;6523;49.758;6.120;2023-04-24T00:52:01;4.57;;;3.00;;
12910;SDS011;6523;49.758;6.120;2023-04-24T00:54:27;3.70;;;3.20;;
12910;SDS011;6523;49.758;6.120;2023-04-24T00:56:52;4.27;;;3.40;;
12910;SDS011;6523;49.758;6.120;2023-04-24T00:59:18;3.33;;;3.03;;
12910;SDS011;6523;49.758;6.120;2023-04-24T01:01:44;3.40;;;3.10;;
12910;SDS011;6523;49.758;6.120;2023-04-24T01:04:11;3.60;;;3.27;;
12910;SDS011;6523;49.758;6.120;2023-04-24T01:06:40;3.73;;;3.30;;
12910;SDS011;6523;49.758;6.120;2023-04-24T01:09:08;3.73;;;3.40;;
12910;SDS011;6523;49.758;6.120;2023-04-24T01:11:36;3.40;;;3.10;;
12910;SDS011;6523;49.758;6.120;2023-04-24T01:14:01;3.97;;;3.23;;
12910;SDS011;6523;49.758;6.120;2023-04-24T01:16:27;4.50;;;3.57;;
12910;SDS011;6523;49.758;6.120;2023-04-24T01:18:53;6.37;;;3.70;;
12910;SDS011;6523;49.758;6.120;2023-04-24T01:21:18;3.63;;;3.30;;
12910;SDS011;6523;49.758;6.120;2023-04-24T01:23:46;3.80;;;3.50;;
12910;SDS011;6523;49.758;6.120;2023-04-24T01:26:12;4.67;;;3.47;;
12910;SDS011;6523;49.758;6.120;2023-04-24T01:28:42;5.37;;;3.90;;
12910;SDS011;6523;49.758;6.120;2023-04-24T01:31:07;3.70;;;3.40;;
12910;SDS011;6523;49.758;6.120;2023-04-24T01:33:33;4.70;;;4.00;;
12910;SDS011;6523;49.758;6.120;2023-04-24T01:35:59;5.37;;;4.30;;
12910;SDS011;6523;49.758;6.120;2023-04-24T01:38:25;6.67;;;4.80;;
12910;SDS011;6523;49.758;6.120;2023-04-24T01:40:50;6.73;;;4.73;;
12910;SDS011;6523;49.758;6.120;2023-04-24T01:43:16;5.73;;;4.87;;
12910;SDS011;6523;49.758;6.120;2023-04-24T01:45:42;6.27;;;4.77;;
12910;SDS011;6523;49.758;6.120;2023-04-24T01:48:08;6.90;;;4.80;;
12910;SDS011;6523;49.758;6.120;2023-04-24T01:50:34;6.13;;;5.53;;
12910;SDS011;6523;49.758;6.120;2023-04-24T01:53:00;7.17;;;5.17;;
12910;SDS011;6523;49.758;6.120;2023-04-24T01:55:25;6.17;;;5.37;;
12910;SDS011;6523;49.758;6.120;2023-04-24T01:57:52;6.73;;;5.30;;
12910;SDS011;6523;49.758;6.120;2023-04-24T02:00:20;7.43;;;5.80;;
12910;SDS011;6523;49.758;6.120;2023-04-24T02:02:45;7.00;;;5.30;;
12910;SDS011;6523;49.758;6.120;2023-04-24T02:05:11;5.73;;;5.13;;
12910;SDS011;6523;49.758;6.120;2023-04-24T02:07:36;5.67;;;5.07;;
12910;SDS011;6523;49.758;6.120;2023-04-24T02:10:02;8.67;;;5.73;;
12910;SDS011;6523;49.758;6.120;2023-04-24T02:12:29;5.80;;;5.20;;
12910;SDS011;6523;49.758;6.120;2023-04-24T02:14:54;8.63;;;5.50;;
12910;SDS011;6523;49.758;6.120;2023-04-24T02:17:20;6.70;;;6.00;;
12910;SDS011;6523;49.758;6.120;2023-04-24T02:19:46;6.20;;;5.60;;
12910;SDS011;6523;49.758;6.120;2023-04-24T02:22:11;7.27;;;5.90;;
12910;SDS011;6523;49.758;6.120;2023-04-24T02:24:37;7.00;;;6.17;;
12910;SDS011;6523;49.758;6.120;2023-04-24T02:27:03;7.63;;;6.13;;
12910;SDS011;6523;49.758;6.120;2023-04-24T02:29:29;7.83;;;6.37;;
12910;SDS011;6523;49.758;6.120;2023-04-24T02:31:55;10.80;;;6.73;;
12910;SDS011;6523;49.758;6.120;2023-04-24T02:34:21;7.67;;;6.83;;
12910;SDS011;6523;49.758;6.120;2023-04-24T02:36:46;9.13;;;6.10;;
12910;SDS011;6523;49.758;6.120;2023-04-24T02:39:12;9.43;;;7.57;;
12910;SDS011;6523;49.758;6.120;2023-04-24T02:41:38;7.77;;;6.93;;
12910;SDS011;6523;49.758;6.120;2023-04-24T02:44:03;8.37;;;7.20;;
12910;SDS011;6523;49.758;6.120;2023-04-24T02:46:29;8.47;;;7.57;;
12910;SDS011;6523;49.758;6.120;2023-04-24T02:48:55;8.77;;;7.87;;
12910;SDS011;6523;49.758;6.120;2023-04-24T02:51:20;8.60;;;7.10;;
12910;SDS011;6523;49.758;6.120;2023-04-24T02:53:46;9.43;;;7.30;;
12910;SDS011;6523;49.758;6.120;2023-04-24T02:56:11;12.40;;;8.10;;
12910;SDS011;6523;49.758;6.120;2023-04-24T02:58:37;8.83;;;7.80;;
12910;SDS011;6523;49.758;6.120;2023-04-24T03:01:03;11.60;;;7.80;;
12910;SDS011;6523;49.758;6.120;2023-04-24T03:03:29;13.23;;;8.27;;
12910;SDS011;6523;49.758;6.120;2023-04-24T03:05:55;9.33;;;7.57;;
12910;SDS011;6523;49.758;6.120;2023-04-24T03:08:22;9.40;;;8.27;;
12910;SDS011;6523;49.758;6.120;2023-04-24T03:10:47;10.67;;;8.50;;
12910;SDS011;6523;49.758;6.120;2023-04-24T03:13:13;10.23;;;8.30;;
12910;SDS011;6523;49.758;6.120;2023-04-24T03:15:38;10.23;;;8.40;;
12910;SDS011;6523;49.758;6.120;2023-04-24T03:18:04;9.50;;;8.07;;
12910;SDS011;6523;49.758;6.120;2023-04-24T03:20:30;10.73;;;8.40;;
12910;SDS011;6523;49.758;6.120;2023-04-24T03:22:55;11.50;;;8.43;;
12910;SDS011;6523;49.758;6.120;2023-04-24T03:25:22;12.67;;;9.20;;
12910;SDS011;6523;49.758;6.120;2023-04-24T03:27:47;10.87;;;8.37;;
12910;SDS011;6523;49.758;6.120;2023-04-24T03:30:13;10.50;;;8.63;;
12910;SDS011;6523;49.758;6.120;2023-04-24T03:32:38;11.40;;;8.67;;
12910;SDS011;6523;49.758;6.120;2023-04-24T03:35:05;10.90;;;9.07;;
12910;SDS011;6523;49.758;6.120;2023-04-24T03:37:32;11.10;;;8.77;;
12910;SDS011;6523;49.758;6.120;2023-04-24T03:39:58;11.77;;;9.33;;
12910;SDS011;6523;49.758;6.120;2023-04-24T03:42:23;11.17;;;8.50;;
12910;SDS011;6523;49.758;6.120;2023-04-24T03:44:49;9.67;;;8.63;;
12910;SDS011;6523;49.758;6.120;2023-04-24T03:47:14;9.73;;;8.73;;
12910;SDS011;6523;49.758;6.120;2023-04-24T03:49:40;10.30;;;8.20;;
12910;SDS011;6523;49.758;6.120;2023-04-24T03:52:05;10.07;;;8.67;;
12910;SDS011;6523;49.758;6.120;2023-04-24T03:54:31;9.73;;;8.73;;
12910;SDS011;6523;49.758;6.120;2023-04-24T03:56:56;11.60;;;9.30;;
12910;SDS011;6523;49.758;6.120;2023-04-24T03:59:22;10.93;;;8.83;;
12910;SDS011;6523;49.758;6.120;2023-04-24T04:01:48;10.00;;;7.73;;
12910;SDS011;6523;49.758;6.120;2023-04-24T04:04:13;10.40;;;8.80;;
12910;SDS011;6523;49.758;6.120;2023-04-24T04:06:39;9.50;;;8.43;;
12910;SDS011;6523;49.758;6.120;2023-04-24T04:09:05;10.53;;;8.87;;
12910;SDS011;6523;49.758;6.120;2023-04-24T04:11:30;11.10;;;8.53;;
12910;SDS011;6523;49.758;6.120;2023-04-24T04:13:56;10.23;;;9.00;;
12910;SDS011;6523;49.758;6.120;2023-04-24T04:16:21;11.47;;;8.37;;
12910;SDS011;6523;49.758;6.120;2023-04-24T04:18:47;10.87;;;8.37;;
12910;SDS011;6523;49.758;6.120;2023-04-24T04:21:13;9.27;;;7.00;;
12910;SDS011;6523;49.758;6.120;2023-04-24T04:23:39;9.43;;;7.43;;
12910;SDS011;6523;49.758;6.120;2023-04-24T04:26:05;9.13;;;8.13;;
12910;SDS011;6523;49.758;6.120;2023-04-24T04:28:31;9.33;;;7.17;;
12910;SDS011;6523;49.758;6.120;2023-04-24T04:30:57;8.23;;;6.90;;
12910;SDS011;6523;49.758;6.120;2023-04-24T04:33:23;10.73;;;7.50;;
12910;SDS011;6523;49.758;6.120;2023-04-24T04:35:49;9.57;;;7.37;;
12910;SDS011;6523;49.758;6.120;2023-04-24T04:38:17;7.10;;;6.37;;
12910;SDS011;6523;49.758;6.120;2023-04-24T04:40:43;7.80;;;6.87;;
12910;SDS011;6523;49.758;6.120;2023-04-24T04:43:09;11.97;;;6.53;;
12910;SDS011;6523;49.758;6.120;2023-04-24T04:45:35;9.77;;;6.43;;
12910;SDS011;6523;49.758;6.120;2023-04-24T04:48:05;9.57;;;6.40;;
12910;SDS011;6523;49.758;6.120;2023-04-24T04:50:32;7.00;;;6.30;;
12910;SDS011;6523;49.758;6.120;2023-04-24T04:52:58;6.47;;;5.87;;
12910;SDS011;6523;49.758;6.120;2023-04-24T04:55:23;7.93;;;5.93;;
12910;SDS011;6523;49.758;6.120;2023-04-24T04:57:50;6.87;;;6.17;;
12910;SDS011;6523;49.758;6.120;2023-04-24T05:00:16;6.57;;;5.97;;
12910;SDS011;6523;49.758;6.120;2023-04-24T05:02:41;8.03;;;5.50;;
12910;SDS011;6523;49.758;6.120;2023-04-24T05:05:07;8.57;;;5.87;;
12910;SDS011;6523;49.758;6.120;2023-04-24T05:07:33;6.30;;;5.67;;
12910;SDS011;6523;49.758;6.120;2023-04-24T05:09:59;8.77;;;6.43;;
12910;SDS011;6523;49.758;6.120;2023-04-24T05:12:24;7.20;;;5.87;;
12910;SDS011;6523;49.758;6.120;2023-04-24T05:14:50;11.07;;;5.90;;
12910;SDS011;6523;49.758;6.120;2023-04-24T05:17:16;7.00;;;5.50;;
12910;SDS011;6523;49.758;6.120;2023-04-24T05:19:42;6.77;;;5.80;;
12910;SDS011;6523;49.758;6.120;2023-04-24T05:22:07;6.50;;;5.80;;
12910;SDS011;6523;49.758;6.120;2023-04-24T05:24:34;6.53;;;5.83;;
12910;SDS011;6523;49.758;6.120;2023-04-24T05:27:00;6.70;;;5.93;;
12910;SDS011;6523;49.758;6.120;2023-04-24T05:29:27;6.03;;;5.40;;
12910;SDS011;6523;49.758;6.120;2023-04-24T05:31:53;7.93;;;6.20;;
12910;SDS011;6523;49.758;6.120;2023-04-24T05:34:18;7.27;;;6.30;;
12910;SDS011;6523;49.758;6.120;2023-04-24T05:36:44;7.50;;;5.97;;
12910;SDS011;6523;49.758;6.120;2023-04-24T05:39:09;7.10;;;6.10;;
12910;SDS011;6523;49.758;6.120;2023-04-24T05:41:35;6.60;;;5.60;;
12910;SDS011;6523;49.758;6.120;2023-04-24T05:44:00;9.20;;;6.60;;
12910;SDS011;6523;49.758;6.120;2023-04-24T05:46:26;7.87;;;7.07;;
12910;SDS011;6523;49.758;6.120;2023-04-24T05:48:51;7.80;;;6.30;;
12910;SDS011;6523;49.758;6.120;2023-04-24T05:51:17;8.80;;;7.17;;
12910;SDS011;6523;49.758;6.120;2023-04-24T05:53:42;8.80;;;7.23;;
12910;SDS011;6523;49.758;6.120;2023-04-24T05:56:08;10.47;;;7.40;;
12910;SDS011;6523;49.758;6.120;2023-04-24T05:58:34;9.90;;;7.00;;
12910;SDS011;6523;49.758;6.120;2023-04-24T06:00:59;9.20;;;7.57;;
12910;SDS011;6523;49.758;6.120;2023-04-24T06:03:26;9.90;;;8.00;;
12910;SDS011;6523;49.758;6.120;2023-04-24T06:05:52;7.87;;;7.03;;
12910;SDS011;6523;49.758;6.120;2023-04-24T06:08:18;9.93;;;7.83;;
12910;SDS011;6523;49.758;6.120;2023-04-24T06:10:43;9.00;;;7.43;;
12910;SDS011;6523;49.758;6.120;2023-04-24T06:13:10;9.60;;;7.57;;
12910;SDS011;6523;49.758;6.120;2023-04-24T06:15:36;9.90;;;7.67;;
12910;SDS011;6523;49.758;6.120;2023-04-24T06:18:01;8.33;;;7.47;;
12910;SDS011;6523;49.758;6.120;2023-04-24T06:20:27;8.80;;;6.93;;
12910;SDS011;6523;49.758;6.120;2023-04-24T06:22:53;10.30;;;7.30;;
12910;SDS011;6523;49.758;6.120;2023-04-24T06:25:19;11.83;;;7.23;;
12910;SDS011;6523;49.758;6.120;2023-04-24T06:27:45;9.10;;;6.77;;
12910;SDS011;6523;49.758;6.120;2023-04-24T06:30:10;9.97;;;6.90;;
12910;SDS011;6523;49.758;6.120;2023-04-24T06:32:36;8.70;;;6.77;;
12910;SDS011;6523;49.758;6.120;2023-04-24T06:35:01;10.50;;;7.53;;
12910;SDS011;6523;49.758;6.120;2023-04-24T06:37:27;9.40;;;7.57;;
12910;SDS011;6523;49.758;6.120;2023-04-24T06:39:53;10.47;;;7.83;;
12910;SDS011;6523;49.758;6.120;2023-04-24T06:42:18;12.77;;;7.47;;
12910;SDS011;6523;49.758;6.120;2023-04-24T06:44:46;8.70;;;7.13;;
12910;SDS011;6523;49.758;6.120;2023-04-24T06:47:12;7.00;;;6.30;;
12910;SDS011;6523;49.758;6.120;2023-04-24T06:49:40;8.47;;;6.90;;
12910;SDS011;6523;49.758;6.120;2023-04-24T06:52:06;9.00;;;7.27;;
12910;SDS011;6523;49.758;6.120;2023-04-24T06:54:32;7.57;;;6.77;;
12910;SDS011;6523;49.758;6.120;2023-04-24T06:56:58;7.57;;;6.57;;
12910;SDS011;6523;49.758;6.120;2023-04-24T06:59:25;9.97;;;6.47;;
12910;SDS011;6523;49.758;6.120;2023-04-24T07:01:51;9.47;;;6.53;;
12910;SDS011;6523;49.758;6.120;2023-04-24T07:04:17;8.43;;;6.53;;
12910;SDS011;6523;49.758;6.120;2023-04-24T07:06:44;7.57;;;5.63;;
12910;SDS011;6523;49.758;6.120;2023-04-24T07:09:11;8.33;;;6.60;;
12910;SDS011;6523;49.758;6.120;2023-04-24T07:11:36;8.00;;;6.40;;
12910;SDS011;6523;49.758;6.120;2023-04-24T07:14:04;7.70;;;5.90;;
12910;SDS011;6523;49.758;6.120;2023-04-24T07:16:29;9.10;;;7.33;;
12910;SDS011;6523;49.758;6.120;2023-04-24T07:18:55;9.30;;;6.97;;
12910;SDS011;6523;49.758;6.120;2023-04-24T07:21:20;8.83;;;6.80;;
12910;SDS011;6523;49.758;6.120;2023-04-24T07:23:46;9.30;;;7.00;;
12910;SDS011;6523;49.758;6.120;2023-04-24T07:26:12;8.37;;;6.77;;
12910;SDS011;6523;49.758;6.120;2023-04-24T07:28:39;11.03;;;7.27;;
12910;SDS011;6523;49.758;6.120;2023-04-24T07:31:05;10.77;;;7.50;;
12910;SDS011;6523;49.758;6.120;2023-04-24T07:33:30;8.37;;;7.03;;
12910;SDS011;6523;49.758;6.120;2023-04-24T07:35:56;9.87;;;7.10;;
12910;SDS011;6523;49.758;6.120;2023-04-24T07:38:22;11.53;;;7.03;;
12910;SDS011;6523;49.758;6.120;2023-04-24T07:40:48;9.87;;;7.50;;
12910;SDS011;6523;49.758;6.120;2023-04-24T07:43:14;9.63;;;7.90;;
12910;SDS011;6523;49.758;6.120;2023-04-24T07:45:39;13.00;;;7.43;;
12910;SDS011;6523;49.758;6.120;2023-04-24T07:48:05;9.03;;;7.20;;
12910;SDS011;6523;49.758;6.120;2023-04-24T07:50:31;10.87;;;7.43;;
12910;SDS011;6523;49.758;6.120;2023-04-24T07:52:57;12.50;;;7.97;;
12910;SDS011;6523;49.758;6.120;2023-04-24T07:55:22;9.97;;;7.80;;
12910;SDS011;6523;49.758;6.120;2023-04-24T07:57:48;10.10;;;7.80;;
12910;SDS011;6523;49.758;6.120;2023-04-24T08:00:14;10.83;;;8.10;;
12910;SDS011;6523;49.758;6.120;2023-04-24T08:02:40;9.37;;;7.33;;
12910;SDS011;6523;49.758;6.120;2023-04-24T08:05:05;10.53;;;7.53;;
12910;SDS011;6523;49.758;6.120;2023-04-24T08:07:31;10.37;;;7.23;;
12910;SDS011;6523;49.758;6.120;2023-04-24T08:09:57;7.47;;;6.53;;
12910;SDS011;6523;49.758;6.120;2023-04-24T08:12:24;7.57;;;6.77;;
12910;SDS011;6523;49.758;6.120;2023-04-24T08:14:50;9.53;;;6.90;;
12910;SDS011;6523;49.758;6.120;2023-04-24T08:17:16;15.10;;;7.47;;
12910;SDS011;6523;49.758;6.120;2023-04-24T08:19:42;9.43;;;7.53;;
12910;SDS011;6523;49.758;6.120;2023-04-24T08:22:12;10.63;;;7.43;;
12910;SDS011;6523;49.758;6.120;2023-04-24T08:24:38;10.50;;;7.50;;
12910;SDS011;6523;49.758;6.120;2023-04-24T08:27:03;11.40;;;7.53;;
12910;SDS011;6523;49.758;6.120;2023-04-24T08:29:29;10.07;;;8.03;;
12910;SDS011;6523;49.758;6.120;2023-04-24T08:31:55;8.30;;;7.30;;
12910;SDS011;6523;49.758;6.120;2023-04-24T08:34:21;11.77;;;8.03;;
12910;SDS011;6523;49.758;6.120;2023-04-24T08:36:46;10.17;;;7.83;;
12910;SDS011;6523;49.758;6.120;2023-04-24T08:39:12;9.67;;;7.93;;
12910;SDS011;6523;49.758;6.120;2023-04-24T08:41:38;14.30;;;8.33;;
12910;SDS011;6523;49.758;6.120;2023-04-24T08:44:07;9.10;;;7.13;;
12910;SDS011;6523;49.758;6.120;2023-04-24T08:46:34;8.93;;;7.97;;
12910;SDS011;6523;49.758;6.120;2023-04-24T08:49:00;10.03;;;8.23;;
12910;SDS011;6523;49.758;6.120;2023-04-24T08:51:27;13.57;;;8.97;;
12910;SDS011;6523;49.758;6.120;2023-04-24T08:53:55;10.43;;;9.07;;
12910;SDS011;6523;49.758;6.120;2023-04-24T08:56:22;10.40;;;8.53;;
12910;SDS011;6523;49.758;6.120;2023-04-24T08:58:50;11.43;;;8.17;;
12910;SDS011;6523;49.758;6.120;2023-04-24T09:01:16;9.37;;;8.37;;
12910;SDS011;6523;49.758;6.120;2023-04-24T09:03:44;11.20;;;8.27;;
12910;SDS011;6523;49.758;6.120;2023-04-24T09:06:11;8.13;;;6.67;;
12910;SDS011;6523;49.758;6.120;2023-04-24T09:08:37;8.60;;;6.97;;
12910;SDS011;6523;49.758;6.120;2023-04-24T09:11:05;7.43;;;6.40;;
12910;SDS011;6523;49.758;6.120;2023-04-24T09:13:31;8.97;;;7.00;;
12910;SDS011;6523;49.758;6.120;2023-04-24T09:15:58;7.83;;;6.70;;
12910;SDS011;6523;49.758;6.120;2023-04-24T09:18:25;7.67;;;6.27;;
12910;SDS011;6523;49.758;6.120;2023-04-24T09:21:01;6.93;;;5.47;;
12910;SDS011;6523;49.758;6.120;2023-04-24T09:23:29;7.03;;;6.13;;
12910;SDS011;6523;49.758;6.120;2023-04-24T09:25:56;7.40;;;4.83;;
12910;SDS011;6523;49.758;6.120;2023-04-24T09:28:29;5.70;;;5.13;;
12910;SDS011;6523;49.758;6.120;2023-04-24T09:31:12;6.93;;;5.60;;
12910;SDS011;6523;49.758;6.120;2023-04-24T09:33:40;5.60;;;4.90;;
12910;SDS011;6523;49.758;6.120;2023-04-24T09:36:26;6.57;;;5.13;;
12910;SDS011;6523;49.758;6.120;2023-04-24T09:39:02;7.40;;;4.90;;
12910;SDS011;6523;49.758;6.120;2023-04-24T09:41:29;5.00;;;4.50;;
12910;SDS011;6523;49.758;6.120;2023-04-24T09:43:56;6.20;;;4.83;;
12910;SDS011;6523;49.758;6.120;2023-04-24T09:46:30;6.40;;;5.30;;
12910;SDS011;6523;49.758;6.120;2023-04-24T09:49:03;8.27;;;5.43;;
12910;SDS011;6523;49.758;6.120;2023-04-24T09:51:34;6.17;;;4.47;;
12910;SDS011;6523;49.758;6.120;2023-04-24T09:54:01;4.87;;;4.37;;
12910;SDS011;6523;49.758;6.120;2023-04-24T09:56:28;6.57;;;4.80;;
12910;SDS011;6523;49.758;6.120;2023-04-24T09:59:17;5.87;;;4.40;;
12910;SDS011;6523;49.758;6.120;2023-04-24T10:01:43;6.77;;;4.97;;
12910;SDS011;6523;49.758;6.120;2023-04-24T10:04:20;5.83;;;3.73;;
12910;SDS011;6523;49.758;6.120;2023-04-24T10:06:54;5.63;;;4.63;;
12910;SDS011;6523;49.758;6.120;2023-04-24T10:09:22;4.87;;;4.40;;
12910;SDS011;6523;49.758;6.120;2023-04-24T10:11:49;5.73;;;4.60;;
12910;SDS011;6523;49.758;6.120;2023-04-24T10:14:17;5.87;;;4.20;;
12910;SDS011;6523;49.758;6.120;2023-04-24T10:16:45;4.87;;;3.80;;
12910;SDS011;6523;49.758;6.120;2023-04-24T10:19:14;5.93;;;4.33;;
12910;SDS011;6523;49.758;6.120;2023-04-24T10:21:43;4.30;;;3.90;;
12910;SDS011;6523;49.758;6.120;2023-04-24T10:24:15;6.77;;;4.20;;
12910;SDS011;6523;49.758;6.120;2023-04-24T10:26:42;6.10;;;4.60;;
12910;SDS011;6523;49.758;6.120;2023-04-24T10:29:10;5.93;;;4.50;;
12910;SDS011;6523;49.758;6.120;2023-04-24T10:31:37;4.80;;;4.07;;
12910;SDS011;6523;49.758;6.120;2023-04-24T10:34:04;7.20;;;5.07;;
12910;SDS011;6523;49.758;6.120;2023-04-24T10:36:31;7.03;;;4.97;;
12910;SDS011;6523;49.758;6.120;2023-04-24T10:38:59;5.27;;;4.77;;
12910;SDS011;6523;49.758;6.120;2023-04-24T10:41:27;6.30;;;5.03;;
12910;SDS011;6523;49.758;6.120;2023-04-24T10:44:10;6.33;;;4.90;;
12910;SDS011;6523;49.758;6.120;2023-04-24T10:46:38;5.57;;;4.47;;
12910;SDS011;6523;49.758;6.120;2023-04-24T10:49:07;6.43;;;4.93;;
12910;SDS011;6523;49.758;6.120;2023-04-24T10:51:49;4.57;;;4.07;;
12910;SDS011;6523;49.758;6.120;2023-04-24T10:54:24;7.90;;;4.90;;
12910;SDS011;6523;49.758;6.120;2023-04-24T10:56:52;6.30;;;5.10;;
12910;SDS011;6523;49.758;6.120;2023-04-24T10:59:25;6.03;;;4.60;;
12910;SDS011;6523;49.758;6.120;2023-04-24T11:01:53;5.20;;;4.00;;
12910;SDS011;6523;49.758;6.120;2023-04-24T11:04:30;5.27;;;4.77;;
12910;SDS011;6523;49.758;6.120;2023-04-24T11:07:00;5.90;;;5.07;;
12910;SDS011;6523;49.758;6.120;2023-04-24T11:09:26;6.73;;;5.97;;
12910;SDS011;6523;49.758;6.120;2023-04-24T11:12:02;8.23;;;6.33;;
12910;SDS011;6523;49.758;6.120;2023-04-24T11:14:31;6.80;;;6.10;;
12910;SDS011;6523;49.758;6.120;2023-04-24T11:17:37;7.53;;;6.83;;
12910;SDS011;6523;49.758;6.120;2023-04-24T11:20:08;9.03;;;6.60;;
12910;SDS011;6523;49.758;6.120;2023-04-24T11:22:41;9.23;;;7.07;;
12910;SDS011;6523;49.758;6.120;2023-04-24T11:25:07;10.63;;;7.70;;
12910;SDS011;6523;49.758;6.120;2023-04-24T11:27:41;8.77;;;7.20;;
12910;SDS011;6523;49.758;6.120;2023-04-24T11:30:08;8.27;;;6.37;;
12910;SDS011;6523;49.758;6.120;2023-04-24T11:32:39;9.77;;;6.87;;
12910;SDS011;6523;49.758;6.120;2023-04-24T11:35:06;10.70;;;6.33;;
12910;SDS011;6523;49.758;6.120;2023-04-24T11:37:39;6.23;;;5.63;;
12910;SDS011;6523;49.758;6.120;2023-04-24T11:40:07;9.43;;;6.43;;
12910;SDS011;6523;49.758;6.120;2023-04-24T11:42:35;8.67;;;6.33;;
12910;SDS011;6523;49.758;6.120;2023-04-24T11:45:26;9.90;;;7.03;;
12910;SDS011;6523;49.758;6.120;2023-04-24T11:47:53;9.40;;;6.33;;
12910;SDS011;6523;49.758;6.120;2023-04-24T11:50:21;7.77;;;6.97;;
12910;SDS011;6523;49.758;6.120;2023-04-24T11:52:48;7.97;;;6.83;;
12910;SDS011;6523;49.758;6.120;2023-04-24T11:57:47;8.20;;;6.23;;
12910;SDS011;6523;49.758;6.120;2023-04-24T12:00:15;8.57;;;6.50;;
12910;SDS011;6523;49.758;6.120;2023-04-24T12:02:43;7.50;;;6.10;;
12910;SDS011;6523;49.758;6.120;2023-04-24T12:05:09;9.60;;;7.00;;
12910;SDS011;6523;49.758;6.120;2023-04-24T12:07:43;9.30;;;6.73;;
12910;SDS011;6523;49.758;6.120;2023-04-24T12:10:09;7.13;;;6.43;;
12910;SDS011;6523;49.758;6.120;2023-04-24T12:12:35;8.37;;;6.50;;
12910;SDS011;6523;49.758;6.120;2023-04-24T12:15:01;10.50;;;7.27;;
12910;SDS011;6523;49.758;6.120;2023-04-24T12:17:32;8.97;;;6.50;;
12910;SDS011;6523;49.758;6.120;2023-04-24T12:22:25;9.73;;;6.87;;
12910;SDS011;6523;49.758;6.120;2023-04-24T12:27:22;7.80;;;6.33;;
12910;SDS011;6523;49.758;6.120;2023-04-24T12:29:52;6.77;;;5.97;;
12910;SDS011;6523;49.758;6.120;2023-04-24T12:32:18;7.90;;;5.90;;
12910;SDS011;6523;49.758;6.120;2023-04-24T12:34:44;7.23;;;6.17;;
12910;SDS011;6523;49.758;6.120;2023-04-24T12:37:10;8.07;;;6.27;;
12910;SDS011;6523;49.758;6.120;2023-04-24T12:39:36;6.77;;;5.80;;
12910;SDS011;6523;49.758;6.120;2023-04-24T12:42:02;7.27;;;5.67;;
12910;SDS011;6523;49.758;6.120;2023-04-24T12:47:00;7.77;;;5.73;;
12910;SDS011;6523;49.758;6.120;2023-04-24T12:49:26;5.70;;;4.67;;
12910;SDS011;6523;49.758;6.120;2023-04-24T12:51:52;5.87;;;5.37;;
12910;SDS011;6523;49.758;6.120;2023-04-24T12:54:18;7.37;;;6.00;;
12910;SDS011;6523;49.758;6.120;2023-04-24T12:56:44;10.47;;;5.87;;
12910;SDS011;6523;49.758;6.120;2023-04-24T12:59:10;6.10;;;5.23;;
12910;SDS011;6523;49.758;6.120;2023-04-24T13:01:35;6.73;;;5.50;;
12910;SDS011;6523;49.758;6.120;2023-04-24T13:04:01;8.80;;;5.57;;
12910;SDS011;6523;49.758;6.120;2023-04-24T13:06:26;6.57;;;5.40;;
12910;SDS011;6523;49.758;6.120;2023-04-24T13:08:52;6.50;;;5.33;;
12910;SDS011;6523;49.758;6.120;2023-04-24T13:11:19;5.93;;;5.30;;
12910;SDS011;6523;49.758;6.120;2023-04-24T13:13:46;6.20;;;5.40;;
12910;SDS011;6523;49.758;6.120;2023-04-24T13:16:12;5.10;;;4.60;;
12910;SDS011;6523;49.758;6.120;2023-04-24T13:18:37;6.10;;;4.93;;
12910;SDS011;6523;49.758;6.120;2023-04-24T13:21:03;7.40;;;4.93;;
12910;SDS011;6523;49.758;6.120;2023-04-24T13:23:28;6.03;;;4.83;;
12910;SDS011;6523;49.758;6.120;2023-04-24T13:25:54;5.17;;;4.67;;
12910;SDS011;6523;49.758;6.120;2023-04-24T13:28:22;5.30;;;4.30;;
12910;SDS011;6523;49.758;6.120;2023-04-24T13:30:48;6.43;;;4.83;;
12910;SDS011;6523;49.758;6.120;2023-04-24T13:33:14;5.30;;;4.80;;
12910;SDS011;6523;49.758;6.120;2023-04-24T13:35:40;6.90;;;4.47;;
12910;SDS011;6523;49.758;6.120;2023-04-24T13:38:06;6.77;;;4.93;;
12910;SDS011;6523;49.758;6.120;2023-04-24T13:40:32;5.90;;;5.23;;
12910;SDS011;6523;49.758;6.120;2023-04-24T13:42:58;6.73;;;5.50;;
12910;SDS011;6523;49.758;6.120;2023-04-24T13:45:23;7.00;;;5.40;;
12910;SDS011;6523;49.758;6.120;2023-04-24T13:47:49;5.90;;;5.23;;
12910;SDS011;6523;49.758;6.120;2023-04-24T13:50:15;6.83;;;5.63;;
12910;SDS011;6523;49.758;6.120;2023-04-24T13:52:40;7.03;;;5.60;;
12910;SDS011;6523;49.758;6.120;2023-04-24T13:55:06;7.87;;;6.13;;
12910;SDS011;6523;49.758;6.120;2023-04-24T13:57:32;7.87;;;6.13;;
12910;SDS011;6523;49.758;6.120;2023-04-24T13:59:58;7.70;;;6.90;;
12910;SDS011;6523;49.758;6.120;2023-04-24T14:02:28;11.00;;;7.73;;
12910;SDS011;6523;49.758;6.120;2023-04-24T14:04:54;10.00;;;6.97;;
12910;SDS011;6523;49.758;6.120;2023-04-24T14:07:20;9.07;;;7.53;;
12910;SDS011;6523;49.758;6.120;2023-04-24T14:09:45;7.97;;;5.90;;
12910;SDS011;6523;49.758;6.120;2023-04-24T14:12:11;7.67;;;6.90;;
12910;SDS011;6523;49.758;6.120;2023-04-24T14:14:37;8.97;;;7.40;;
12910;SDS011;6523;49.758;6.120;2023-04-24T14:17:03;7.70;;;6.47;;
12910;SDS011;6523;49.758;6.120;2023-04-24T14:19:28;8.40;;;6.87;;
12910;SDS011;6523;49.758;6.120;2023-04-24T14:21:54;9.83;;;7.70;;
12910;SDS011;6523;49.758;6.120;2023-04-24T14:24:21;6.10;;;5.33;;
12910;SDS011;6523;49.758;6.120;2023-04-24T14:26:47;6.67;;;6.00;;
12910;SDS011;6523;49.758;6.120;2023-04-24T14:29:12;9.07;;;6.60;;
12910;SDS011;6523;49.758;6.120;2023-04-24T14:31:38;7.17;;;5.20;;
12910;SDS011;6523;49.758;6.120;2023-04-24T14:34:04;6.33;;;5.67;;
12910;SDS011;6523;49.758;6.120;2023-04-24T14:36:29;6.40;;;5.77;;
12910;SDS011;6523;49.758;6.120;2023-04-24T14:38:56;6.13;;;5.27;;
12910;SDS011;6523;49.758;6.120;2023-04-24T14:41:22;4.73;;;4.27;;
12910;SDS011;6523;49.758;6.120;2023-04-24T14:43:47;4.30;;;3.63;;
12910;SDS011;6523;49.758;6.120;2023-04-24T14:46:13;5.30;;;3.53;;
12910;SDS011;6523;49.758;6.120;2023-04-24T14:48:38;4.93;;;3.73;;
12910;SDS011;6523;49.758;6.120;2023-04-24T14:51:04;3.83;;;3.37;;
12910;SDS011;6523;49.758;6.120;2023-04-24T14:53:30;3.53;;;3.07;;
12910;SDS011;6523;49.758;6.120;2023-04-24T14:55:55;3.50;;;3.20;;
12910;SDS011;6523;49.758;6.120;2023-04-24T14:58:21;4.03;;;3.03;;
12910;SDS011;6523;49.758;6.120;2023-04-24T15:00:46;3.30;;;3.00;;
12910;SDS011;6523;49.758;6.120;2023-04-24T15:03:14;3.97;;;3.03;;
12910;SDS011;6523;49.758;6.120;2023-04-24T15:05:40;3.97;;;2.97;;